• Join FlightAware (Why Join?)
  • Login
  • US Flag 
03:47PM EDT


 

Airport Tracker/Info


-or-


 

Live Flight TrackerFlight Track Log ✈ EGF3681 ✈ 21-Aug-2013 ✈ KORD - KDAY

Flight Track Log - Related Links

Times and Time Zones

All times are in EDT time to prevent confusion due to time zone crossing. See the EGF3681 flight status page for this flight to view local times or setup timezone preferences in your user account.

Time Position Orientation Groundspeed Altitude Reporting Facility
EDT Latitude Longitude Course Direction KTS MPH feet Rate Location/Type
12:04AM 41.9333 -87.9000 95° East 191 220 2,400  Level Chicago TRACON
12:05AM 41.8833 -87.8333 135° Southeast 237 273 4,300 1,440 Climbing Chicago TRACON
12:06AM 41.8433 -87.7803 135° Southeast 241 277 5,100 300 Climbing Chicago Center
12:07AM 41.7819 -87.7011 136° Southeast 287 330 5,000 -60 Descending Chicago Center
12:08AM 41.7169 -87.6422 146° Southeast 297 342 5,000  Level Chicago Center
12:09AM 41.6469 -87.5933 152° Southeast 287 330 5,000  Level Chicago Center
12:10AM 41.9342 -87.1450 95° East  Level FlightAware Approximate
12:10AM 41.6292 -87.4872 103° East 297 342 5,000  Level Chicago Center
12:11AM 41.6194 -87.3819 97° East 290 334 5,000 900 Level Chicago Center
12:12AM 41.6506 -87.2653 70° East 293 337 6,900 2,160 Climbing Chicago Center
12:13AM 41.6806 -87.1700 67° East 287 330 9,400 2,160 Climbing Chicago Center
12:14AM 41.6817 -87.0589 89° East 300 345 11,300 1,800 Climbing Chicago Center
12:15AM 41.6847 -86.9431 88° East 313 360 13,100 1,680 Climbing Chicago Center
12:16AM 41.6653 -86.8281 103° East 337 388 14,800 1,800 Climbing Chicago Center
12:17AM 41.6081 -86.7250 127° Southeast 347 399 16,800 1,500 Climbing Chicago Center
12:18AM 41.5564 -86.6183 123° Southeast 349 402 17,900 1,020 Climbing Chicago Center
12:19AM 41.5028 -86.5039 122° Southeast 364 419 18,900 960 Climbing Chicago Center
12:20AM 41.4461 -86.3836 122° Southeast 382 440 19,900 1,020 Climbing Chicago Center
12:21AM 41.3867 -86.2594 123° Southeast 398 458 21,000 1,020 Climbing Chicago Center
12:22AM 41.3258 -86.1339 123° Southeast 405 466 22,000 960 Climbing Chicago Center
12:23AM 41.2642 -86.0061 123° Southeast 412 474 23,000 480 Climbing Chicago Center
12:24AM 41.2019 -85.8744 122° Southeast 422 486 23,000  Level Chicago Center
12:25AM 41.1192 -85.7086 123° Southeast 452 520 23,000  Level Chicago Center
12:26AM 41.0364 -85.5775 130° Southeast 476 548 23,000  Level Chicago Center
12:27AM 40.9394 -85.4678 139° Southeast 471 542 23,000  Level Chicago Center
12:28AM 40.8444 -85.3533 138° Southeast 466 536 23,000 -540 Level Chicago Center
12:29AM 40.7511 -85.2347 136° Southeast 469 540 22,000 -1,620 Descending Chicago Center
12:30AM 40.6583 -85.1214 137° Southeast 462 532 19,600 -2,400 Descending Chicago Center
12:31AM 40.5847 -85.0347 138° Southeast 445 512 17,700 -2,640 Descending Indianapolis Center
12:32AM 40.4986 -84.9297 137° Southeast 412 474 15,200 -2,580 Descending Indianapolis Center
12:33AM 40.4169 -84.8314 137° Southeast 391 450 12,700 -2,400 Descending Indianapolis Center
12:34AM 40.3464 -84.7272 132° Southeast 380 437 10,400 -1,440 Descending Indianapolis Center
12:35AM 40.2864 -84.6389 132° Southeast 306 352 9,900 -1,080 Descending Indianapolis Center
12:36AM 40.2319 -84.5603 132° Southeast 282 325 8,300 -1,620 Descending Indianapolis Center
12:37AM 40.1794 -84.4819 131° Southeast 289 333 6,700 -1,440 Descending Indianapolis Center
12:38AM 40.1278 -84.4056 131° Southeast 283 326 5,300 -1,380 Descending Indianapolis Center
12:39AM 40.0731 -84.3350 135° Southeast 278 320 3,900 -1,320 Descending Indianapolis Center
12:40AM 40.0197 -84.2700 137° Southeast 268 308 2,700 -840 Descending Indianapolis Center
12:41AM 39.9864 -84.2275 136° Southeast 194 223 2,300 -420 Descending Indianapolis Center
12:42AM 39.9542 -84.2086 156° South 161 185 1,900 -420 Descending Indianapolis Center